Time;durP1;ratioP1;P1;durP2;ratioP2;P2;SDS_P1;SDS_P2;PMS_P1;PMS_P2;Temp;Humidity;BMP_temperature;BMP_pressure;BME280_temperature;BME280_humidity;BME280_pressure;Samples;Min_cycle;Max_cycle;Signal;HPM_P1;HPM_P2
2024/03/26 00:01:56;;;;;;;10.50;3.22;;;6.80;99.90;;;;;;5007964;28;20091;-56
2024/03/26 00:04:21;;;;;;;6.47;2.80;;;6.80;99.90;;;;;;5007896;28;20038;-51
2024/03/26 00:06:47;;;;;;;9.57;3.08;;;6.80;99.90;;;;;;5008956;28;20032;-51
2024/03/26 00:09:13;;;;;;;4.97;3.00;;;6.80;99.90;;;;;;5008708;28;20042;-50
2024/03/26 00:11:38;;;;;;;4.90;2.65;;;6.70;99.90;;;;;;5008255;28;20061;-53
2024/03/26 00:14:04;;;;;;;4.70;2.28;;;6.70;99.90;;;;;;5008262;28;21581;-51
2024/03/26 00:16:29;;;;;;;5.57;3.15;;;6.70;99.90;;;;;;5008278;28;20037;-53
2024/03/26 00:18:54;;;;;;;4.97;2.97;;;6.80;99.90;;;;;;5008186;28;20037;-51
2024/03/26 00:21:20;;;;;;;4.72;2.90;;;6.80;99.90;;;;;;5008179;28;20494;-48
2024/03/26 00:23:45;;;;;;;7.10;2.88;;;6.80;99.90;;;;;;5008653;28;20121;-51
2024/03/26 00:26:11;;;;;;;3.33;2.25;;;6.80;99.90;;;;;;5006921;28;20026;-53
2024/03/26 00:28:36;;;;;;;5.07;2.80;;;6.90;99.90;;;;;;5008589;28;20036;-48
2024/03/26 00:31:02;;;;;;;10.38;3.45;;;6.80;99.90;;;;;;5008106;28;20034;-52
2024/03/26 00:33:27;;;;;;;2.22;2.03;;;6.80;99.90;;;;;;5008598;28;20041;-51
2024/03/26 00:35:53;;;;;;;4.93;2.80;;;6.70;99.90;;;;;;5007964;28;20033;-51
2024/03/26 00:38:18;;;;;;;5.13;3.65;;;6.70;99.90;;;;;;5007790;28;20516;-50
2024/03/26 00:40:44;;;;;;;4.95;2.60;;;6.70;99.90;;;;;;5007730;28;20392;-49
2024/03/26 00:43:09;;;;;;;7.13;2.72;;;6.70;99.90;;;;;;5008368;28;20041;-56
2024/03/26 00:45:35;;;;;;;6.30;3.42;;;6.70;99.90;;;;;;5008415;28;20066;-54
2024/03/26 00:48:00;;;;;;;5.13;2.92;;;6.90;99.90;;;;;;5008366;28;20038;-55
2024/03/26 00:50:26;;;;;;;35.00;18.20;;;6.80;99.90;;;;;;5008086;28;20034;-51
2024/03/26 00:52:51;;;;;;;43.42;24.55;;;6.90;99.90;;;;;;5008021;28;20595;-52
2024/03/26 00:55:17;;;;;;;10.93;5.57;;;6.90;99.90;;;;;;5008416;28;20036;-51
2024/03/26 00:57:43;;;;;;;8.30;3.58;;;6.90;99.90;;;;;;5008434;28;20022;-54
2024/03/26 01:00:10;;;;;;;6.72;3.30;;;6.90;99.90;;;;;;5036296;23;20394;-43
2024/03/26 01:02:36;;;;;;;4.13;2.65;;;6.80;99.90;;;;;;5033926;28;20079;-44
2024/03/26 01:05:02;;;;;;;7.10;3.17;;;6.90;99.90;;;;;;5035018;28;20104;-41
2024/03/26 01:07:27;;;;;;;5.10;2.83;;;6.80;99.90;;;;;;5034930;28;20028;-44
2024/03/26 01:09:53;;;;;;;6.88;3.65;;;6.70;99.90;;;;;;5047732;28;20029;-42
2024/03/26 01:12:19;;;;;;;8.80;3.28;;;6.30;99.90;;;;;;5054618;28;20027;-44
2024/03/26 01:14:44;;;;;;;3.60;2.42;;;6.70;99.90;;;;;;5054923;28;20032;-45
2024/03/26 01:17:10;;;;;;;4.45;2.97;;;6.70;99.90;;;;;;5055241;28;20032;-42
2024/03/26 01:19:35;;;;;;;5.22;3.10;;;6.70;99.90;;;;;;5053662;28;20434;-43
2024/03/26 01:22:01;;;;;;;3.67;2.40;;;6.60;99.90;;;;;;5055260;28;20037;-46
2024/03/26 01:24:26;;;;;;;3.80;2.53;;;6.60;99.90;;;;;;5054816;28;20384;-42
2024/03/26 01:26:51;;;;;;;6.43;2.67;;;6.60;99.90;;;;;;5055108;28;20033;-42
2024/03/26 01:29:17;;;;;;;7.25;3.22;;;6.60;99.90;;;;;;5054610;28;20049;-38
2024/03/26 01:31:42;;;;;;;8.50;3.08;;;6.60;99.90;;;;;;5054507;28;20021;-45
2024/03/26 01:34:08;;;;;;;4.90;3.45;;;6.60;99.90;;;;;;5054443;28;20036;-41
2024/03/26 01:36:33;;;;;;;6.10;2.78;;;6.60;99.90;;;;;;5054454;28;20021;-44
2024/03/26 01:38:59;;;;;;;3.67;2.67;;;6.60;99.90;;;;;;5054320;28;20039;-42
2024/03/26 01:41:24;;;;;;;3.25;2.63;;;6.60;99.90;;;;;;5054430;28;20083;-45
2024/03/26 01:43:50;;;;;;;5.47;3.03;;;6.60;99.90;;;;;;5054482;28;20047;-43
2024/03/26 01:46:15;;;;;;;3.28;2.90;;;6.50;99.90;;;;;;5054409;28;20412;-43
2024/03/26 01:48:41;;;;;;;5.28;2.70;;;6.50;99.90;;;;;;5054537;28;20061;-42
2024/03/26 01:51:06;;;;;;;4.80;2.58;;;6.50;99.90;;;;;;5053385;28;20021;-42
2024/03/26 01:53:33;;;;;;;5.22;3.03;;;6.50;99.90;;;;;;5053354;28;20044;-45
2024/03/26 01:55:59;;;;;;;4.55;2.70;;;6.50;99.90;;;;;;5053151;28;20029;-43
2024/03/26 01:58:25;;;;;;;4.80;2.88;;;6.50;99.90;;;;;;5054593;28;20069;-42
2024/03/26 02:00:52;;;;;;;3.72;3.40;;;6.40;99.90;;;;;;5054649;28;20539;-43
2024/03/26 02:03:18;;;;;;;5.30;3.13;;;6.40;99.90;;;;;;5054175;28;20021;-40
2024/03/26 02:05:43;;;;;;;3.63;3.10;;;6.40;99.90;;;;;;5054114;28;20038;-42
2024/03/26 02:08:12;;;;;;;4.00;2.22;;;6.40;99.90;;;;;;5053957;28;20370;-43
2024/03/26 02:10:38;;;;;;;4.07;2.70;;;6.40;99.90;;;;;;5053639;28;20088;-48
2024/03/26 02:13:04;;;;;;;7.82;3.38;;;6.40;99.90;;;;;;5052905;28;20037;-42
2024/03/26 02:15:29;;;;;;;4.68;3.17;;;6.40;99.90;;;;;;5053652;28;20021;-43
2024/03/26 02:17:55;;;;;;;5.47;2.78;;;6.30;99.90;;;;;;5052424;28;20025;-46
2024/03/26 02:20:23;;;;;;;6.20;2.70;;;6.30;99.90;;;;;;5053489;28;20028;-46
2024/03/26 02:22:54;;;;;;;6.47;3.72;;;6.30;99.90;;;;;;5053871;28;20059;-46
2024/03/26 02:25:20;;;;;;;4.05;3.53;;;6.30;99.90;;;;;;5054053;28;20086;-45
2024/03/26 02:27:45;;;;;;;4.72;2.33;;;6.30;99.90;;;;;;5053573;28;20033;-48
2024/03/26 02:30:11;;;;;;;4.00;2.53;;;;;;;;;;5052047;28;20115;-43
2024/03/26 02:32:37;;;;;;;4.65;3.10;;;6.40;99.90;;;;;;5053258;28;20115;-43
2024/03/26 02:35:02;;;;;;;5.03;2.95;;;6.10;99.90;;;;;;5053404;28;20458;-42
2024/03/26 02:37:28;;;;;;;4.20;2.42;;;6.00;99.90;;;;;;5052216;28;20021;-42
2024/03/26 02:39:53;;;;;;;5.13;2.92;;;6.00;99.90;;;;;;5053454;28;20032;-45
2024/03/26 02:42:19;;;;;;;5.57;2.70;;;6.00;99.90;;;;;;5053450;28;20070;-47
2024/03/26 02:44:44;;;;;;;9.27;2.85;;;6.00;99.90;;;;;;5053207;28;20025;-44
2024/03/26 02:47:10;;;;;;;4.13;3.00;;;5.90;99.90;;;;;;5053175;28;20033;-43
2024/03/26 02:49:35;;;;;;;5.28;2.97;;;5.80;99.90;;;;;;5053097;28;20469;-45
2024/03/26 02:52:01;;;;;;;3.05;2.67;;;5.80;99.90;;;;;;5053082;28;20096;-44
2024/03/26 02:54:26;;;;;;;4.57;2.67;;;5.80;99.90;;;;;;5051846;28;20021;-42
2024/03/26 02:56:52;;;;;;;4.50;2.70;;;5.80;99.90;;;;;;5053039;28;20028;-46
2024/03/26 02:59:17;;;;;;;10.15;3.15;;;5.70;99.90;;;;;;5053581;28;20041;-45
2024/03/26 03:01:42;;;;;;;3.75;2.65;;;5.70;99.90;;;;;;5053887;28;20522;-44
2024/03/26 03:04:08;;;;;;;4.43;2.72;;;5.70;99.90;;;;;;5052972;28;20060;-42
2024/03/26 03:06:33;;;;;;;2.55;2.35;;;5.70;99.90;;;;;;5053893;28;20496;-42
2024/03/26 03:08:59;;;;;;;3.22;2.90;;;5.60;99.90;;;;;;5053541;28;20033;-40
2024/03/26 03:11:24;;;;;;;4.80;3.35;;;5.60;99.90;;;;;;5052102;28;20484;-43
2024/03/26 03:13:50;;;;;;;5.43;3.00;;;5.60;99.90;;;;;;5052577;28;20021;-43
2024/03/26 03:16:15;;;;;;;5.45;3.33;;;5.60;99.90;;;;;;5052703;28;20028;-42
2024/03/26 03:18:41;;;;;;;3.53;2.80;;;5.60;99.90;;;;;;5052776;28;20112;-44
2024/03/26 03:21:06;;;;;;;3.25;2.95;;;5.60;99.90;;;;;;5052536;28;20052;-47
2024/03/26 03:23:32;;;;;;;5.53;3.00;;;5.50;99.90;;;;;;5052557;28;20078;-42
2024/03/26 03:25:57;;;;;;;3.85;2.28;;;5.50;99.90;;;;;;5052440;28;20036;-44
2024/03/26 03:28:23;;;;;;;7.47;3.10;;;5.50;99.90;;;;;;5052232;28;20025;-46
2024/03/26 03:30:48;;;;;;;4.68;3.42;;;5.50;99.90;;;;;;5052899;28;20060;-47
2024/03/26 03:33:14;;;;;;;3.60;2.88;;;5.40;99.90;;;;;;5052589;28;20032;-42
2024/03/26 03:35:40;;;;;;;6.63;3.65;;;5.50;99.90;;;;;;5052797;28;20118;-46
2024/03/26 03:38:06;;;;;;;7.60;3.58;;;5.40;99.90;;;;;;5052388;28;20384;-49
2024/03/26 03:40:33;;;;;;;3.35;2.88;;;5.50;99.90;;;;;;5052184;28;20159;-44
2024/03/26 03:42:59;;;;;;;5.93;3.40;;;5.40;99.90;;;;;;5052196;28;20080;-44
2024/03/26 03:45:24;;;;;;;5.38;3.40;;;5.40;99.90;;;;;;5052331;28;20496;-42
2024/03/26 03:47:50;;;;;;;4.20;3.78;;;5.40;99.90;;;;;;5050703;28;20051;-47
2024/03/26 03:50:15;;;;;;;5.72;3.40;;;5.40;99.90;;;;;;5051936;28;20408;-44
2024/03/26 03:52:41;;;;;;;4.43;3.03;;;5.30;99.90;;;;;;5051747;28;20032;-44
2024/03/26 03:55:06;;;;;;;4.10;3.40;;;5.30;99.90;;;;;;5051926;28;20033;-43
2024/03/26 03:57:32;;;;;;;5.82;3.72;;;5.30;99.90;;;;;;5050533;28;20017;-45
2024/03/26 03:59:57;;;;;;;5.57;3.53;;;5.20;99.90;;;;;;5051417;28;20029;-42
2024/03/26 04:02:23;;;;;;;6.75;3.97;;;5.20;99.90;;;;;;5051967;28;20079;-40
2024/03/26 04:04:48;;;;;;;4.22;2.78;;;5.20;99.90;;;;;;5051298;28;20064;-46
2024/03/26 04:07:14;;;;;;;3.58;3.28;;;5.30;99.90;;;;;;5050408;28;20509;-46
2024/03/26 04:09:39;;;;;;;5.80;3.33;;;5.20;99.90;;;;;;5051904;28;20029;-44
2024/03/26 04:12:05;;;;;;;4.40;3.72;;;5.20;99.90;;;;;;5051540;28;20029;-46
2024/03/26 04:14:30;;;;;;;4.60;3.45;;;5.20;99.90;;;;;;5050374;28;20039;-44
2024/03/26 04:16:56;;;;;;;7.47;3.75;;;5.20;99.90;;;;;;5051566;28;20391;-42
2024/03/26 04:19:22;;;;;;;6.80;3.53;;;5.20;99.90;;;;;;5051891;28;20033;-43
2024/03/26 04:21:47;;;;;;;3.88;3.47;;;5.20;99.90;;;;;;5051897;28;20109;-45
2024/03/26 04:24:13;;;;;;;3.30;3.00;;;5.10;99.90;;;;;;5051958;28;20488;-42
2024/03/26 04:26:38;;;;;;;7.15;3.72;;;5.10;99.90;;;;;;5051884;28;20064;-42
2024/03/26 04:29:04;;;;;;;6.25;3.10;;;5.10;99.90;;;;;;5051832;28;20033;-43
2024/03/26 04:31:29;;;;;;;5.07;3.78;;;5.00;99.90;;;;;;5051379;28;20396;-44
2024/03/26 04:33:55;;;;;;;8.10;3.92;;;5.00;99.90;;;;;;5051417;28;20086;-44
2024/03/26 04:36:20;;;;;;;5.95;3.92;;;5.10;99.90;;;;;;5049702;28;20108;-44
2024/03/26 04:38:46;;;;;;;4.82;3.90;;;5.10;99.90;;;;;;5051207;28;20037;-47
2024/03/26 04:41:11;;;;;;;6.15;3.83;;;5.10;99.90;;;;;;5051321;28;20558;-45
2024/03/26 04:43:37;;;;;;;9.52;4.82;;;5.00;99.90;;;;;;5051335;28;20163;-42
2024/03/26 04:46:03;;;;;;;5.65;3.50;;;5.00;99.90;;;;;;5051524;28;20029;-42
2024/03/26 04:48:28;;;;;;;4.82;4.28;;;5.00;99.90;;;;;;5051587;28;20119;-45
2024/03/26 04:50:53;;;;;;;7.18;3.80;;;5.00;99.90;;;;;;5051292;28;20037;-44
2024/03/26 04:53:19;;;;;;;7.97;4.25;;;5.10;99.90;;;;;;5051775;28;20472;-42
2024/03/26 04:55:45;;;;;;;4.20;3.80;;;5.00;99.90;;;;;;5051605;28;20029;-47
2024/03/26 04:58:11;;;;;;;11.60;4.00;;;5.00;99.90;;;;;;5051737;28;20025;-43
2024/03/26 05:00:36;;;;;;;9.18;3.60;;;5.00;99.90;;;;;;5050809;28;20036;-44
2024/03/26 05:03:02;;;;;;;6.63;4.40;;;5.00;99.90;;;;;;5051270;28;20298;-43
2024/03/26 05:05:27;;;;;;;5.03;3.53;;;5.00;99.90;;;;;;5051171;28;20029;-46
2024/03/26 05:07:54;;;;;;;5.82;3.80;;;5.00;99.90;;;;;;5051072;28;20087;-44
2024/03/26 05:10:19;;;;;;;6.95;4.00;;;5.00;99.90;;;;;;5051090;28;20021;-43
2024/03/26 05:12:45;;;;;;;7.82;3.97;;;5.00;99.90;;;;;;5050889;28;20489;-41
2024/03/26 05:15:10;;;;;;;6.55;3.80;;;4.90;99.90;;;;;;5051095;28;20041;-41
2024/03/26 05:17:36;;;;;;;4.85;3.42;;;4.90;99.90;;;;;;5051026;28;20514;-44
2024/03/26 05:20:05;;;;;;;5.47;4.20;;;5.00;99.90;;;;;;5050848;28;20516;-46
2024/03/26 05:22:30;;;;;;;5.72;4.10;;;5.00;99.90;;;;;;5050705;28;20025;-42
2024/03/26 05:24:56;;;;;;;6.20;4.10;;;5.10;99.90;;;;;;5049741;28;20021;-45
2024/03/26 05:27:21;;;;;;;9.75;4.55;;;5.00;99.90;;;;;;5050963;28;20036;-39
2024/03/26 05:29:47;;;;;;;8.05;5.55;;;5.00;99.90;;;;;;5050807;28;20029;-41
2024/03/26 05:32:12;;;;;;;9.68;4.07;;;5.00;99.90;;;;;;5050595;28;20053;-41
2024/03/26 05:34:38;;;;;;;7.60;4.43;;;5.00;99.90;;;;;;5050626;28;20476;-44
2024/03/26 05:37:03;;;;;;;6.30;4.07;;;5.00;99.90;;;;;;5049415;28;20120;-41
2024/03/26 05:39:29;;;;;;;12.50;4.28;;;5.00;99.90;;;;;;5050636;28;20515;-40
2024/03/26 05:41:54;;;;;;;7.60;4.40;;;5.10;99.90;;;;;;5049358;28;20028;-44
2024/03/26 05:44:20;;;;;;;6.85;4.35;;;5.20;99.90;;;;;;5050782;28;20104;-43
2024/03/26 05:46:45;;;;;;;8.65;4.00;;;5.30;99.90;;;;;;5050654;28;20029;-39
2024/03/26 05:49:11;;;;;;;3.78;3.45;;;5.50;99.90;;;;;;5052933;28;20060;-42
2024/03/26 05:51:36;;;;;;;12.00;4.95;;;5.50;99.90;;;;;;5054143;28;20025;-43
2024/03/26 05:54:01;;;;;;;7.25;4.32;;;5.50;99.90;;;;;;5054146;28;20037;-39
2024/03/26 05:56:27;;;;;;;8.25;4.40;;;5.60;99.90;;;;;;5054166;28;20029;-41
2024/03/26 05:58:56;;;;;;;6.20;4.25;;;5.70;99.90;;;;;;5053832;28;20056;-46
2024/03/26 06:01:21;;;;;;;4.85;4.25;;;5.80;99.90;;;;;;5053691;28;20040;-41
2024/03/26 06:03:47;;;;;;;5.50;4.15;;;5.80;99.90;;;;;;5054043;28;20021;-43
2024/03/26 06:06:13;;;;;;;5.10;4.03;;;5.90;99.90;;;;;;5054053;28;20020;-41
2024/03/26 06:08:38;;;;;;;7.05;4.47;;;6.00;99.90;;;;;;5053776;28;20066;-42
2024/03/26 06:11:04;;;;;;;4.65;4.05;;;5.90;99.90;;;;;;5053845;28;20087;-42
2024/03/26 06:13:29;;;;;;;4.90;4.22;;;5.90;99.90;;;;;;5053607;28;20527;-43
2024/03/26 06:16:07;;;;;;;5.60;3.83;;;6.00;99.90;;;;;;5053747;28;20056;-41
2024/03/26 06:18:32;;;;;;;8.27;3.83;;;6.10;99.90;;;;;;5053534;28;20069;-45
2024/03/26 06:20:58;;;;;;;10.00;5.00;;;6.20;99.90;;;;;;5052568;28;20064;-44
2024/03/26 06:23:23;;;;;;;6.32;4.20;;;6.10;99.90;;;;;;5053540;28;20067;-45
2024/03/26 06:25:49;;;;;;;7.45;4.45;;;6.10;99.90;;;;;;5053644;28;20033;-43
2024/03/26 06:28:15;;;;;;;5.88;3.72;;;6.10;99.90;;;;;;5053468;28;20388;-40
2024/03/26 06:30:40;;;;;;;6.60;4.22;;;6.20;99.90;;;;;;5053264;28;20040;-42
2024/03/26 06:33:06;;;;;;;8.43;3.80;;;6.30;99.90;;;;;;5053415;28;20104;-44
2024/03/26 06:35:31;;;;;;;4.05;3.47;;;6.40;99.90;;;;;;5053445;28;20036;-41
2024/03/26 06:37:57;;;;;;;7.25;4.38;;;6.30;99.90;;;;;;5053370;28;20025;-44
2024/03/26 06:40:22;;;;;;;6.30;3.80;;;6.30;99.90;;;;;;5053374;28;20044;-42
2024/03/26 06:42:48;;;;;;;8.73;4.45;;;6.10;99.90;;;;;;5053085;28;20039;-42
2024/03/26 06:45:14;;;;;;;6.70;3.80;;;6.10;99.90;;;;;;5053228;28;20017;-43
2024/03/26 06:47:39;;;;;;;5.38;4.18;;;6.20;99.90;;;;;;5053245;28;20039;-42
2024/03/26 06:50:05;;;;;;;6.97;4.40;;;6.20;99.90;;;;;;5051849;28;20155;-42
2024/03/26 06:52:31;;;;;;;6.50;4.40;;;6.30;99.90;;;;;;5052772;28;20025;-41
2024/03/26 06:54:56;;;;;;;4.38;3.78;;;6.20;99.90;;;;;;5053110;28;20103;-42
2024/03/26 06:57:22;;;;;;;4.28;3.78;;;6.30;99.90;;;;;;5052815;28;20044;-41
2024/03/26 06:59:47;;;;;;;5.32;4.35;;;6.40;99.90;;;;;;5052668;28;20033;-45
2024/03/26 07:02:13;;;;;;;7.07;4.30;;;6.60;99.90;;;;;;5052779;28;20078;-40
2024/03/26 07:04:38;;;;;;;9.77;3.65;;;6.80;99.90;;;;;;5051653;28;20354;-43
2024/03/26 07:07:04;;;;;;;5.68;3.55;;;6.90;99.90;;;;;;5052713;28;20028;-43
2024/03/26 07:09:31;;;;;;;5.85;4.00;;;7.20;99.90;;;;;;5052704;28;20036;-41
2024/03/26 07:11:56;;;;;;;6.03;4.13;;;7.50;99.90;;;;;;5052480;28;20025;-46
2024/03/26 07:14:22;;;;;;;7.30;4.65;;;7.60;99.90;;;;;;5051436;28;20079;-42
2024/03/26 07:16:47;;;;;;;6.82;4.05;;;7.50;99.90;;;;;;5052601;28;20032;-42
2024/03/26 07:19:13;;;;;;;4.70;4.20;;;7.30;99.90;;;;;;5052556;28;20025;-42
2024/03/26 07:21:39;;;;;;;11.63;3.80;;;7.20;99.90;;;;;;5052385;28;20021;-42
2024/03/26 07:24:06;;;;;;;5.22;3.90;;;7.10;99.90;;;;;;5052381;28;20388;-43
2024/03/26 07:26:31;;;;;;;7.18;3.78;;;7.00;99.90;;;;;;5051219;28;20028;-42
2024/03/26 07:28:57;;;;;;;8.55;3.85;;;7.10;99.90;;;;;;5052425;28;20036;-46
2024/03/26 07:31:23;;;;;;;4.70;3.85;;;7.20;99.90;;;;;;5050840;28;20497;-41
2024/03/26 07:33:49;;;;;;;5.50;3.33;;;7.30;99.90;;;;;;5052182;28;20025;-47
2024/03/26 07:36:14;;;;;;;9.30;4.05;;;7.30;99.90;;;;;;5051057;28;20028;-48
2024/03/26 07:38:40;;;;;;;9.23;4.13;;;7.30;99.90;;;;;;5052103;28;20025;-41
2024/03/26 07:41:07;;;;;;;7.60;3.67;;;7.20;99.90;;;;;;5052110;28;20477;-42
2024/03/26 07:43:32;;;;;;;4.57;4.03;;;7.30;99.90;;;;;;5052010;28;20039;-42
2024/03/26 07:45:58;;;;;;;3.92;3.55;;;7.40;99.90;;;;;;5052142;28;20107;-42
2024/03/26 07:48:23;;;;;;;9.68;3.88;;;7.40;99.90;;;;;;5051978;28;20067;-40
2024/03/26 07:50:49;;;;;;;7.28;3.90;;;7.40;99.90;;;;;;5051837;28;20036;-47
2024/03/26 07:53:14;;;;;;;5.35;4.75;;;7.50;99.90;;;;;;5052485;28;20547;-39
2024/03/26 07:55:40;;;;;;;4.40;3.33;;;7.50;99.90;;;;;;5052008;28;20074;-41
2024/03/26 07:58:05;;;;;;;4.75;4.28;;;7.50;99.90;;;;;;5051833;28;20028;-46
2024/03/26 08:00:32;;;;;;;6.03;4.05;;;7.50;99.90;;;;;;5051273;28;20108;-39
2024/03/26 08:02:57;;;;;;;4.68;3.95;;;7.60;99.90;;;;;;5051770;28;20044;-45
2024/03/26 08:05:23;;;;;;;5.30;3.88;;;7.50;99.90;;;;;;5052427;28;20492;-42
2024/03/26 08:07:48;;;;;;;3.60;3.15;;;7.50;99.90;;;;;;5051777;28;20036;-43
2024/03/26 08:10:14;;;;;;;6.53;3.63;;;7.50;99.90;;;;;;5051339;28;20021;-43
2024/03/26 08:12:39;;;;;;;6.20;3.80;;;7.60;99.90;;;;;;5051050;28;20036;-48
2024/03/26 08:15:06;;;;;;;4.75;3.70;;;7.60;99.90;;;;;;5051669;28;20496;-42
2024/03/26 08:17:32;;;;;;;4.50;3.70;;;7.70;99.90;;;;;;5050327;28;20104;-46
2024/03/26 08:19:58;;;;;;;7.85;3.72;;;7.90;99.90;;;;;;5051503;28;20032;-45
2024/03/26 08:22:23;;;;;;;3.90;3.50;;;8.00;99.90;;;;;;5051435;28;20031;-42
2024/03/26 08:24:48;;;;;;;7.45;4.10;;;8.10;99.90;;;;;;5051711;28;20032;-44
2024/03/26 08:27:14;;;;;;;4.45;3.53;;;8.20;99.90;;;;;;5051977;28;20025;-44
2024/03/26 08:29:39;;;;;;;3.70;3.40;;;8.30;99.90;;;;;;5051986;28;20033;-42
2024/03/26 08:32:05;;;;;;;4.82;4.13;;;8.40;99.90;;;;;;5051669;28;20493;-43
2024/03/26 08:34:31;;;;;;;7.75;3.70;;;8.40;99.90;;;;;;5051795;28;20120;-42
2024/03/26 08:36:56;;;;;;;5.65;4.60;;;8.50;99.90;;;;;;5051741;28;20021;-42
2024/03/26 08:39:22;;;;;;;3.72;3.38;;;8.50;99.90;;;;;;5050188;28;20052;-44
2024/03/26 08:41:47;;;;;;;5.07;4.22;;;8.60;99.90;;;;;;5051178;28;20025;-46
2024/03/26 08:44:13;;;;;;;4.57;3.53;;;8.60;99.90;;;;;;5051712;28;20032;-42
2024/03/26 08:46:38;;;;;;;5.05;3.85;;;8.50;99.90;;;;;;5050137;28;20029;-44
2024/03/26 08:49:04;;;;;;;6.05;4.15;;;8.30;99.90;;;;;;5051665;28;20496;-45
2024/03/26 08:51:29;;;;;;;4.78;3.83;;;8.40;99.90;;;;;;5051329;28;20037;-47
2024/03/26 08:53:58;;;;;;;6.90;3.33;;;8.30;99.90;;;;;;5051113;28;20029;-45
2024/03/26 08:56:24;;;;;;;13.90;4.13;;;8.40;99.90;;;;;;5051127;28;20036;-45
2024/03/26 08:58:53;;;;;;;3.60;3.08;;;8.60;99.90;;;;;;5050917;28;20440;-44
2024/03/26 09:01:18;;;;;;;6.07;3.13;;;8.80;99.90;;;;;;5050824;28;20108;-45
2024/03/26 09:03:44;;;;;;;4.15;3.75;;;8.90;99.90;;;;;;5051057;28;20109;-43
2024/03/26 09:06:09;;;;;;;3.67;3.38;;;9.00;99.90;;;;;;5050990;28;20044;-44
2024/03/26 09:08:35;;;;;;;5.88;4.32;;;9.00;99.90;;;;;;5051406;28;20056;-44
2024/03/26 09:11:01;;;;;;;9.15;3.72;;;9.00;99.90;;;;;;5050890;28;20391;-46
2024/03/26 09:13:26;;;;;;;4.25;3.83;;;8.90;99.90;;;;;;5050883;28;20028;-44
2024/03/26 09:15:52;;;;;;;7.72;3.50;;;9.00;99.90;;;;;;5050969;28;20515;-43
2024/03/26 09:18:18;;;;;;;7.70;3.90;;;9.30;99.90;;;;;;5051073;28;20441;-45
2024/03/26 09:20:43;;;;;;;4.18;3.28;;;9.40;99.90;;;;;;5050719;28;20025;-43
2024/03/26 09:23:09;;;;;;;8.82;3.33;;;9.40;99.90;;;;;;5053597;28;20025;-46
2024/03/26 09:25:34;;;;;;;3.75;3.40;;;9.50;99.90;;;;;;5054843;28;20401;-45
2024/03/26 09:28:00;;;;;;;3.67;3.38;;;9.60;99.90;;;;;;5054905;28;20068;-43
2024/03/26 09:30:27;;;;;;;6.03;3.70;;;9.50;99.90;;;;;;5054430;28;20096;-42
2024/03/26 09:32:53;;;;;;;5.35;3.58;;;9.60;99.90;;;;;;5054664;28;20029;-42
2024/03/26 09:35:19;;;;;;;5.30;4.05;;;9.50;99.90;;;;;;5054535;28;20031;-42
2024/03/26 09:37:45;;;;;;;4.88;4.03;;;9.40;99.90;;;;;;5054654;28;20029;-43
2024/03/26 09:40:12;;;;;;;4.00;3.45;;;9.40;99.90;;;;;;5054866;28;20025;-41
2024/03/26 09:42:39;;;;;;;9.00;3.95;;;9.50;99.90;;;;;;5054321;28;20029;-43
2024/03/26 09:45:07;;;;;;;3.88;3.47;;;9.50;99.90;;;;;;5052469;28;20409;-48
2024/03/26 09:47:37;;;;;;;4.55;3.95;;;9.60;99.90;;;;;;5053848;28;20561;-48
2024/03/26 09:50:03;;;;;;;6.00;3.78;;;9.70;99.90;;;;;;5049305;28;20052;-47
2024/03/26 09:52:33;;;;;;;3.83;3.53;;;9.70;99.90;;;;;;5041111;28;20078;-44
2024/03/26 09:55:00;;;;;;;7.38;4.22;;;9.80;99.90;;;;;;5038419;28;20112;-47
2024/03/26 09:57:27;;;;;;;5.78;3.55;;;9.80;99.90;;;;;;5034180;28;20527;-46
2024/03/26 09:59:55;;;;;;;4.07;2.85;;;9.80;99.90;;;;;;5034524;28;20485;-44
2024/03/26 10:02:21;;;;;;;4.30;3.53;;;9.70;99.90;;;;;;5038988;28;20047;-46
2024/03/26 10:04:47;;;;;;;7.10;3.83;;;9.70;99.90;;;;;;5054265;28;20033;-50
2024/03/26 10:07:14;;;;;;;13.75;3.35;;;9.70;99.90;;;;;;5042382;28;20457;-47
2024/03/26 10:09:40;;;;;;;4.97;3.38;;;10.00;99.90;;;;;;5033894;28;20513;-47
2024/03/26 10:12:10;;;;;;;5.78;3.67;;;10.00;99.90;;;;;;5033909;28;20500;-47
2024/03/26 10:14:35;;;;;;;4.43;3.30;;;10.10;99.90;;;;;;5033131;28;20021;-47
2024/03/26 10:17:01;;;;;;;4.22;3.72;;;10.20;99.90;;;;;;5033936;28;20385;-49
2024/03/26 10:19:26;;;;;;;7.25;4.05;;;10.20;99.90;;;;;;5045788;28;20384;-49
2024/03/26 10:21:52;;;;;;;5.43;3.90;;;10.20;99.90;;;;;;5053748;28;20029;-46
2024/03/26 10:24:18;;;;;;;4.70;3.58;;;10.20;99.90;;;;;;5053478;28;20025;-49
2024/03/26 10:26:44;;;;;;;11.50;3.78;;;10.10;99.90;;;;;;5051077;28;20029;-46
2024/03/26 10:29:09;;;;;;;6.03;4.57;;;10.00;99.90;;;;;;5053420;28;20495;-45
2024/03/26 10:31:36;;;;;;;4.03;3.38;;;10.20;99.90;;;;;;5034456;28;20519;-47
2024/03/26 10:34:05;;;;;;;6.07;3.70;;;10.20;99.90;;;;;;5032693;28;20048;-47
2024/03/26 10:36:31;;;;;;;5.88;3.88;;;10.20;99.90;;;;;;5045212;28;20029;-46
2024/03/26 10:38:57;;;;;;;7.53;3.83;;;10.20;99.90;;;;;;5051770;28;20485;-51
2024/03/26 10:41:42;;;;;;;5.72;3.05;;;10.30;99.90;;;;;;5043305;28;20036;-48
2024/03/26 10:44:10;;;;;;;5.07;3.83;;;10.30;99.90;;;;;;5033289;28;20029;-45
2024/03/26 10:46:36;;;;;;;4.28;3.08;;;10.30;99.90;;;;;;5033501;28;20030;-48
2024/03/26 10:49:02;;;;;;;7.07;3.25;;;10.40;99.90;;;;;;5033207;28;20037;-44
2024/03/26 10:51:29;;;;;;;5.53;3.47;;;10.40;99.90;;;;;;5033130;28;20029;-48
2024/03/26 10:54:02;;;;;;;5.45;3.13;;;10.40;99.90;;;;;;5033085;28;20607;-47
2024/03/26 10:56:29;;;;;;;6.30;3.60;;;10.40;99.90;;;;;;5033007;28;20080;-50
2024/03/26 10:58:57;;;;;;;5.95;3.85;;;10.50;99.90;;;;;;5032734;28;20090;-51
2024/03/26 11:01:24;;;;;;;4.18;3.40;;;10.60;99.90;;;;;;5045660;28;20116;-51
2024/03/26 11:03:50;;;;;;;5.45;3.88;;;10.80;99.90;;;;;;5052907;28;20037;-50
2024/03/26 11:06:19;;;;;;;7.63;3.58;;;10.70;99.90;;;;;;5034839;28;20040;-49
2024/03/26 11:08:44;;;;;;;3.95;3.58;;;10.80;99.90;;;;;;5032638;28;20119;-47
2024/03/26 11:11:15;;;;;;;6.65;3.92;;;10.70;99.90;;;;;;5032694;28;20072;-46
2024/03/26 11:13:41;;;;;;;6.93;4.15;;;10.60;99.90;;;;;;5032706;28;20022;-47
2024/03/26 11:16:06;;;;;;;3.92;3.50;;;10.60;99.90;;;;;;5036939;28;20029;-48
2024/03/26 11:18:33;;;;;;;8.05;3.70;;;10.60;99.90;;;;;;5035804;28;20385;-49
2024/03/26 11:21:10;;;;;;;8.77;3.10;;;10.90;99.90;;;;;;5033507;28;20195;-47
2024/03/26 11:23:37;;;;;;;8.38;3.58;;;11.00;99.90;;;;;;5052337;28;20055;-49
2024/03/26 11:26:03;;;;;;;8.48;5.00;;;11.00;99.90;;;;;;5051760;28;20040;-48
2024/03/26 11:28:32;;;;;;;45.72;24.63;;;11.10;99.90;;;;;;5052098;28;20033;-49
2024/03/26 11:30:58;;;;;;;42.90;24.05;;;11.10;99.90;;;;;;5052890;28;20108;-45
2024/03/26 11:33:25;;;;;;;6.25;4.78;;;11.10;99.90;;;;;;5047767;28;20025;-50
2024/03/26 11:35:52;;;;;;;5.07;3.30;;;11.10;99.90;;;;;;5032351;28;20032;-49
2024/03/26 11:38:19;;;;;;;4.95;3.53;;;11.10;99.40;;;;;;5043858;28;20070;-46
2024/03/26 11:40:47;;;;;;;4.82;3.40;;;11.20;99.90;;;;;;5045104;28;20021;-46
2024/03/26 11:43:13;;;;;;;7.40;3.47;;;11.30;99.90;;;;;;5051909;28;20025;-48
2024/03/26 11:45:39;;;;;;;5.22;3.53;;;11.30;99.50;;;;;;5049432;28;20052;-49
2024/03/26 11:48:06;;;;;;;4.88;3.30;;;11.40;99.80;;;;;;5029739;28;20286;-45
2024/03/26 11:50:31;;;;;;;5.07;3.15;;;11.50;99.20;;;;;;5030454;28;20448;-43
2024/03/26 11:52:58;;;;;;;4.13;3.55;;;11.50;99.50;;;;;;5031115;28;20038;-49
2024/03/26 11:55:25;;;;;;;5.38;3.30;;;11.60;99.80;;;;;;5030827;28;20035;-46
2024/03/26 11:57:50;;;;;;;9.30;3.20;;;11.50;99.70;;;;;;5031901;28;20185;-48
2024/03/26 12:00:16;;;;;;;5.72;3.20;;;11.60;99.70;;;;;;5032603;28;20562;-46
2024/03/26 12:02:42;;;;;;;5.80;3.03;;;11.50;99.00;;;;;;5039545;28;20033;-46
2024/03/26 12:05:07;;;;;;;5.85;3.35;;;11.50;99.60;;;;;;5051537;28;20021;-46
2024/03/26 12:07:34;;;;;;;3.95;3.05;;;11.40;99.50;;;;;;5048699;28;20025;-46
2024/03/26 12:10:00;;;;;;;6.97;3.40;;;11.50;99.70;;;;;;5032640;28;20397;-46
2024/03/26 12:12:26;;;;;;;3.80;3.30;;;11.60;99.10;;;;;;5031896;28;20049;-46
2024/03/26 12:14:52;;;;;;;3.65;3.25;;;11.70;99.40;;;;;;5031351;28;20032;-45
2024/03/26 12:17:20;;;;;;;4.88;2.90;;;11.70;98.60;;;;;;5033424;28;20049;-44
2024/03/26 12:19:46;;;;;;;10.05;3.50;;;11.80;98.40;;;;;;5031689;28;20029;-46
2024/03/26 12:22:16;;;;;;;8.50;3.60;;;11.80;98.30;;;;;;5031897;28;20071;-46
2024/03/26 12:24:42;;;;;;;3.95;2.92;;;11.80;98.20;;;;;;5031645;28;20021;-43
2024/03/26 12:27:10;;;;;;;5.60;3.40;;;11.80;98.00;;;;;;5032596;28;20551;-47
2024/03/26 12:29:37;;;;;;;7.97;3.42;;;11.60;98.60;;;;;;5037383;28;20025;-47
2024/03/26 12:32:04;;;;;;;3.33;2.65;;;11.70;98.40;;;;;;5051595;28;20391;-48
2024/03/26 12:34:32;;;;;;;4.07;3.00;;;11.80;98.30;;;;;;5051501;28;20104;-49
2024/03/26 12:36:58;;;;;;;12.45;6.97;;;11.80;97.50;;;;;;5050894;28;20488;-52
2024/03/26 12:39:23;;;;;;;60.20;33.58;;;11.90;97.70;;;;;;5051457;28;20060;-51
2024/03/26 12:41:49;;;;;;;4.75;2.95;;;11.90;97.20;;;;;;5052082;28;20029;-48
2024/03/26 12:44:15;;;;;;;6.18;3.05;;;11.70;97.10;;;;;;5041400;28;20045;-45
2024/03/26 12:46:41;;;;;;;6.68;2.63;;;11.70;97.30;;;;;;5041199;28;20041;-47
2024/03/26 12:49:07;;;;;;;8.75;3.00;;;11.70;98.20;;;;;;5050724;28;20108;-47